Time;durP1;ratioP1;P1;durP2;ratioP2;P2;SDS_P1;SDS_P2;PMS_P1;PMS_P2;Temp;Humidity;BMP_temperature;BMP_pressure;BME280_temperature;BME280_humidity;BME280_pressure;Samples;Min_cycle;Max_cycle;Signal;HPM_P1;HPM_P2
2023/08/15 00:00:52;;;;;;;4.68;2.50;;;;;;;23.77;57.92;101175.59;5007020;28;20325;-67
2023/08/15 00:03:17;;;;;;;5.63;2.60;;;;;;;23.77;57.95;101162.31;5006880;28;20034;-67
2023/08/15 00:05:43;;;;;;;4.80;2.10;;;;;;;23.77;57.87;101161.47;5007336;28;20072;-66
2023/08/15 00:08:08;;;;;;;5.30;2.65;;;;;;;23.77;57.81;101156.97;5007453;28;20390;-68
2023/08/15 00:10:33;;;;;;;4.72;2.15;;;;;;;23.75;57.92;101147.47;5007086;28;20038;-66
2023/08/15 00:12:59;;;;;;;5.90;2.88;;;;;;;23.77;57.73;101149.00;5007224;28;20045;-66
2023/08/15 00:15:24;;;;;;;4.28;2.30;;;;;;;23.73;57.70;101140.50;5007306;28;20030;-68
2023/08/15 00:17:49;;;;;;;5.05;2.20;;;;;;;23.77;57.68;101137.53;5007494;28;20034;-66
2023/08/15 00:20:15;;;;;;;5.60;2.60;;;;;;;23.75;57.64;101145.66;5006829;28;20091;-66
2023/08/15 00:22:40;;;;;;;5.65;2.50;;;;;;;23.77;57.58;101150.84;5007142;28;20034;-67
2023/08/15 00:25:05;;;;;;;6.03;2.40;;;;;;;23.76;58.00;101154.47;5007031;28;20501;-67
2023/08/15 00:27:31;;;;;;;3.95;2.35;;;;;;;23.76;58.00;101160.63;5006884;28;20267;-67
2023/08/15 00:29:56;;;;;;;5.15;2.30;;;;;;;23.76;57.81;101163.28;5006786;28;20064;-65
2023/08/15 00:32:21;;;;;;;6.05;2.42;;;;;;;23.75;57.48;101163.44;5007054;28;20034;-66
2023/08/15 00:34:47;;;;;;;5.72;2.63;;;;;;;23.74;57.83;101165.28;5007122;28;20049;-66
2023/08/15 00:37:12;;;;;;;5.37;2.27;;;;;;;23.73;57.86;101164.44;5006628;28;20044;-67
2023/08/15 00:39:37;;;;;;;5.47;2.38;;;;;;;23.73;57.56;101164.44;5006585;28;20271;-67
2023/08/15 00:42:03;;;;;;;5.53;2.17;;;;;;;23.73;57.63;101163.59;5006451;28;20133;-66
2023/08/15 00:44:28;;;;;;;4.40;2.25;;;;;;;23.75;57.62;101179.41;5006356;28;20290;-65
2023/08/15 00:46:53;;;;;;;5.50;2.77;;;;;;;23.74;58.05;101178.56;5006691;28;20026;-65
2023/08/15 00:49:19;;;;;;;5.25;2.30;;;;;;;23.73;57.89;101179.56;5007191;28;20267;-68
2023/08/15 00:51:46;;;;;;;5.03;2.30;;;;;;;23.73;57.75;101191.06;5006770;28;20038;-68
2023/08/15 00:54:12;;;;;;;6.25;2.65;;;;;;;23.73;57.53;101182.22;5006698;28;20449;-67
2023/08/15 00:56:38;;;;;;;6.72;2.90;;;;;;;23.71;58.01;101181.53;5006473;28;20038;-64
2023/08/15 00:59:04;;;;;;;4.75;2.50;;;;;;;23.71;57.42;101184.19;5006491;28;20034;-66
2023/08/15 01:01:30;;;;;;;6.25;2.58;;;;;;;23.72;57.46;101177.91;5006562;28;20073;-65
2023/08/15 01:03:56;;;;;;;5.95;2.40;;;;;;;23.71;57.65;101173.56;5006600;28;20083;-67
2023/08/15 01:06:21;;;;;;;5.07;2.58;;;;;;;23.71;57.42;101176.22;5006400;28;20026;-68
2023/08/15 01:08:47;;;;;;;5.07;2.50;;;;;;;23.71;57.42;101171.72;5006428;28;20033;-67
2023/08/15 01:11:12;;;;;;;6.85;2.65;;;;;;;23.71;57.67;101168.25;5006178;28;20034;-68
2023/08/15 01:13:49;;;;;;;6.65;2.33;;;;;;;23.72;57.44;101167.25;5006398;28;20422;-67
2023/08/15 01:16:21;;;;;;;4.53;2.33;;;;;;;23.71;57.18;101170.91;5006526;28;20515;-66
2023/08/15 01:18:54;;;;;;;4.80;2.25;;;;;;;23.69;57.10;101168.38;5006508;28;20088;-68
2023/08/15 01:21:25;;;;;;;5.18;2.40;;;;;;;23.69;56.92;101165.72;5006270;28;20061;-68
2023/08/15 01:23:53;;;;;;;5.38;2.42;;;;;;;23.69;57.20;101165.72;5006550;28;20113;-64
2023/08/15 01:26:18;;;;;;;5.68;2.58;;;;;;;23.70;57.10;101161.22;5006093;28;20080;-66
2023/08/15 01:28:43;;;;;;;5.00;2.30;;;;;;;23.69;57.10;101162.25;5006304;28;20041;-67
2023/08/15 01:31:17;;;;;;;4.28;2.10;;;;;;;23.68;57.17;101163.22;5004721;28;20044;-66
2023/08/15 01:33:58;;;;;;;6.13;2.65;;;;;;;23.68;56.71;101180.00;5004902;28;20045;-66
2023/08/15 01:36:31;;;;;;;4.35;2.03;;;;;;;23.68;56.64;101188.00;5005793;28;20518;-66
2023/08/15 01:39:01;;;;;;;4.43;2.20;;;;;;;23.68;57.04;101201.31;5006898;28;20120;-66
2023/08/15 01:41:29;;;;;;;4.15;1.88;;;;;;;23.69;56.70;101205.63;5009751;28;20040;-69
2023/08/15 01:43:55;;;;;;;6.05;2.20;;;;;;;23.69;56.57;101199.50;5009781;28;20149;-68
2023/08/15 01:46:20;;;;;;;5.47;3.03;;;;;;;23.68;56.89;101213.78;5009726;28;20140;-66
2023/08/15 01:48:46;;;;;;;5.13;2.33;;;;;;;23.66;56.86;101213.94;5009553;28;20038;-68
2023/08/15 01:51:11;;;;;;;4.88;2.30;;;;;;;23.68;56.62;101209.28;5008897;28;20029;-68
2023/08/15 01:53:37;;;;;;;7.50;2.88;;;;;;;23.67;56.67;101214.75;5009641;28;20037;-67
2023/08/15 01:56:03;;;;;;;5.35;2.30;;;;;;;23.65;56.31;101214.91;5009227;28;20081;-66
2023/08/15 01:58:28;;;;;;;4.10;1.90;;;;;;;23.65;56.31;101220.22;5009411;28;20108;-67
2023/08/15 02:00:53;;;;;;;5.10;2.63;;;;;;;23.67;56.81;101230.72;5009007;28;20033;-66
2023/08/15 02:03:19;;;;;;;5.50;2.20;;;;;;;23.67;56.71;101226.25;5009550;28;20520;-66
2023/08/15 02:05:44;;;;;;;5.32;2.15;;;;;;;23.66;56.39;101229.88;5009231;28;20488;-66
2023/08/15 02:08:09;;;;;;;5.60;2.70;;;;;;;23.65;56.71;101227.38;5009150;28;20033;-66
2023/08/15 02:10:35;;;;;;;5.63;2.50;;;;;;;23.65;56.48;101227.38;5009298;28;20040;-65
2023/08/15 02:13:00;;;;;;;5.05;2.20;;;;;;;23.64;56.27;101231.88;5009395;28;20041;-66
2023/08/15 02:15:25;;;;;;;5.57;2.35;;;;;;;23.65;56.71;101238.84;5009150;28;20030;-67
2023/08/15 02:17:50;;;;;;;5.13;2.00;;;;;;;23.64;56.01;101244.31;5009040;28;20499;-67
2023/08/15 02:20:16;;;;;;;5.63;2.28;;;;;;;23.65;56.03;101256.66;5008120;28;20036;-67
2023/08/15 02:22:42;;;;;;;6.32;2.25;;;;;;;23.64;56.29;101257.63;5009088;28;20038;-66
2023/08/15 02:25:07;;;;;;;4.93;1.92;;;;;;;23.64;56.24;101260.28;5009185;28;20040;-66
2023/08/15 02:27:32;;;;;;;5.47;2.15;;;;;;;23.64;56.15;101254.97;5008859;28;20406;-68
2023/08/15 02:29:58;;;;;;;5.33;2.10;;;;;;;23.64;56.13;101257.63;5008681;28;20166;-68
2023/08/15 02:32:23;;;;;;;4.57;2.13;;;;;;;23.63;56.39;101259.47;5008609;28;20287;-67
2023/08/15 02:34:49;;;;;;;5.43;2.17;;;;;;;23.64;56.35;101257.63;5008519;28;20034;-67
2023/08/15 02:37:15;;;;;;;5.57;2.28;;;;;;;23.63;56.01;101261.28;5007482;28;20374;-66
2023/08/15 02:39:41;;;;;;;4.68;1.88;;;;;;;23.63;56.12;101263.94;5008813;28;20101;-65
2023/08/15 02:42:06;;;;;;;5.93;2.22;;;;;;;23.63;56.25;101253.31;5008763;28;20049;-67
2023/08/15 02:44:32;;;;;;;5.95;2.33;;;;;;;23.63;55.91;101248.00;5009171;28;20129;-66
2023/08/15 02:46:57;;;;;;;6.75;2.28;;;;;;;23.62;56.06;101247.13;5008830;28;20042;-68
2023/08/15 02:49:23;;;;;;;5.15;1.90;;;;;;;23.62;55.82;101247.13;5008623;28;20347;-67
2023/08/15 02:51:48;;;;;;;5.75;2.30;;;;;;;23.60;56.10;101253.63;5007908;28;20037;-68
2023/08/15 02:54:13;;;;;;;5.13;2.00;;;;;;;23.62;56.26;101246.31;5008702;28;20389;-67
2023/08/15 02:56:39;;;;;;;4.78;2.30;;;;;;;23.62;56.14;101251.63;5009104;28;20092;-68
2023/08/15 02:59:04;;;;;;;4.90;2.40;;;;;;;23.61;55.83;101249.97;5008940;28;20036;-67
2023/08/15 03:01:29;;;;;;;5.55;2.05;;;;;;;23.60;55.84;101250.94;5009266;28;20490;-68
2023/08/15 03:03:55;;;;;;;5.45;2.35;;;;;;;23.59;56.18;101247.47;5008689;28;20093;-66
2023/08/15 03:06:20;;;;;;;5.15;2.13;;;;;;;23.58;56.11;101251.09;5008259;28;20030;-67
2023/08/15 03:08:46;;;;;;;5.60;2.25;;;;;;;23.60;55.71;101259.75;5008917;28;21164;-66
2023/08/15 03:11:11;;;;;;;4.95;2.30;;;;;;;23.58;56.09;101245.78;5008698;28;20048;-67
2023/08/15 03:13:37;;;;;;;6.65;2.22;;;;;;;23.60;55.55;101238.47;5008261;28;20475;-66
2023/08/15 03:16:02;;;;;;;5.10;2.08;;;;;;;23.59;55.93;101235.97;5008572;28;20470;-66
2023/08/15 03:18:27;;;;;;;6.50;2.25;;;;;;;23.58;56.13;101240.47;5008602;28;20042;-65
2023/08/15 03:21:01;;;;;;;5.15;2.17;;;;;;;23.59;56.08;101243.94;5008659;28;20034;-66
2023/08/15 03:23:26;;;;;;;4.95;2.00;;;;;;;23.57;55.84;101238.78;5008207;28;20045;-66
2023/08/15 03:26:02;;;;;;;7.05;3.05;;;;;;;23.59;55.88;101246.59;5007828;28;20042;-66
2023/08/15 03:28:28;;;;;;;5.65;2.35;;;;;;;23.57;55.61;101241.44;5008116;28;20033;-67
2023/08/15 03:30:54;;;;;;;4.18;1.80;;;;;;;23.58;55.73;101236.97;5007621;28;20474;-65
2023/08/15 03:33:19;;;;;;;6.10;2.05;;;;;;;23.59;55.92;101241.28;5008230;28;20038;-66
2023/08/15 03:35:50;;;;;;;4.63;1.90;;;;;;;23.57;56.13;101243.28;5008132;28;20548;-67
2023/08/15 03:38:18;;;;;;;5.65;2.20;;;;;;;23.57;55.94;101251.25;5007273;28;20038;-67
2023/08/15 03:40:44;;;;;;;6.03;2.10;;;;;;;23.57;55.84;101251.25;5007816;28;20045;-67
2023/08/15 03:43:10;;;;;;;6.55;2.03;;;;;;;23.55;56.06;101251.41;5007593;28;20509;-66
2023/08/15 03:45:36;;;;;;;5.22;2.10;;;;;;;23.56;55.54;101255.75;5006172;28;20081;-69
2023/08/15 03:48:02;;;;;;;4.85;1.80;;;;;;;23.57;55.89;101261.91;5007280;28;20482;-68
2023/08/15 03:50:27;;;;;;;6.05;2.25;;;;;;;23.56;55.70;101269.03;5007489;28;20042;-66
2023/08/15 03:52:52;;;;;;;5.47;2.05;;;;;;;23.57;55.40;101281.34;5006987;28;20064;-68
2023/08/15 03:55:18;;;;;;;6.73;2.30;;;;;;;23.57;55.48;101269.88;5006628;28;20065;-68
2023/08/15 03:57:43;;;;;;;5.35;2.25;;;;;;;23.57;55.52;101276.03;5007217;28;20278;-67
2023/08/15 04:00:10;;;;;;;5.55;2.03;;;;;;;23.56;55.71;101269.03;5007223;28;20022;-68
2023/08/15 04:02:35;;;;;;;5.82;2.00;;;;;;;23.55;55.88;101264.69;5006967;28;20026;-67
2023/08/15 04:05:01;;;;;;;5.55;2.00;;;;;;;23.54;55.53;101260.34;5007250;28;20026;-67
2023/08/15 04:07:26;;;;;;;5.43;1.80;;;;;;;23.55;55.47;101262.88;5007164;28;20030;-68
2023/08/15 04:09:51;;;;;;;5.78;2.00;;;;;;;23.56;55.52;101274.38;5007224;28;20034;-66
2023/08/15 04:12:16;;;;;;;5.20;2.03;;;;;;;23.51;55.60;101258.84;5007035;28;20394;-66
2023/08/15 04:14:42;;;;;;;3.90;1.87;;;;;;;23.53;55.68;101259.53;5006323;28;20034;-67
2023/08/15 04:17:07;;;;;;;5.33;2.43;;;;;;;23.54;55.49;101252.38;5007202;28;20370;-66
2023/08/15 04:19:32;;;;;;;4.45;1.80;;;;;;;23.54;55.43;101247.06;5007473;28;20302;-68
2023/08/15 04:21:58;;;;;;;4.17;2.03;;;;;;;23.55;55.38;101254.06;5006939;28;20029;-67
2023/08/15 04:24:23;;;;;;;6.20;2.15;;;;;;;23.54;55.89;101253.22;5006930;28;20352;-66
2023/08/15 04:26:49;;;;;;;4.28;1.98;;;;;;;23.53;55.47;101248.88;5007021;28;20470;-68
2023/08/15 04:29:14;;;;;;;5.25;2.25;;;;;;;23.54;55.83;101266.53;5005752;28;20394;-66
2023/08/15 04:31:41;;;;;;;6.53;2.60;;;;;;;23.52;55.47;101259.69;5006033;28;20091;-67
2023/08/15 04:34:07;;;;;;;6.30;2.42;;;;;;;23.52;55.36;101260.50;5006879;28;20038;-66
2023/08/15 04:36:32;;;;;;;5.10;2.50;;;;;;;23.54;55.92;101277.19;5006659;28;20030;-68
2023/08/15 04:38:57;;;;;;;4.57;1.90;;;;;;;23.53;55.63;101274.66;5006793;28;20030;-67
2023/08/15 04:41:23;;;;;;;6.22;1.98;;;;;;;23.53;55.39;101272.00;5006504;28;20033;-67
2023/08/15 04:43:48;;;;;;;5.32;2.13;;;;;;;23.52;55.31;101278.31;5006246;28;20038;-66
2023/08/15 04:46:13;;;;;;;4.65;2.08;;;;;;;23.53;55.48;101282.66;5006465;28;20044;-68
2023/08/15 04:48:39;;;;;;;6.30;2.13;;;;;;;23.52;55.34;101283.63;5006099;28;20062;-67
2023/08/15 04:51:04;;;;;;;5.18;1.90;;;;;;;23.53;55.61;101288.78;5006505;28;20055;-66
2023/08/15 04:53:29;;;;;;;4.63;1.95;;;;;;;23.51;55.33;101290.78;5006309;28;20033;-67
2023/08/15 04:55:55;;;;;;;5.78;2.00;;;;;;;23.49;55.23;101295.38;5006466;28;20040;-68
2023/08/15 04:58:20;;;;;;;4.90;2.08;;;;;;;23.50;55.57;101297.06;5005280;28;20028;-68
2023/08/15 05:00:46;;;;;;;5.22;2.10;;;;;;;23.51;55.45;101311.19;5004967;28;20040;-67
2023/08/15 05:03:11;;;;;;;7.20;2.05;;;;;;;23.49;55.75;101310.50;5005277;28;20037;-66
2023/08/15 05:05:36;;;;;;;5.80;1.80;;;;;;;23.52;55.23;101320.88;5005281;28;20030;-66
2023/08/15 05:08:02;;;;;;;4.90;1.85;;;;;;;23.50;55.84;101318.34;5005276;28;20353;-65
2023/08/15 05:10:27;;;;;;;5.40;2.28;;;;;;;23.50;55.38;101325.50;5005050;28;20026;-66
2023/08/15 05:12:52;;;;;;;4.63;2.10;;;;;;;23.49;55.76;101337.94;5005424;28;20449;-66
2023/08/15 05:15:18;;;;;;;5.47;1.73;;;;;;;23.50;55.77;101342.28;5008291;28;20029;-66
2023/08/15 05:17:48;;;;;;;4.57;1.80;;;;;;;23.50;55.45;101349.44;5009148;28;20419;-67
2023/08/15 05:20:14;;;;;;;4.95;2.00;;;;;;;23.50;55.75;101346.78;5009057;28;20029;-66
2023/08/15 05:22:40;;;;;;;6.00;2.17;;;;;;;23.48;55.56;101352.25;5008883;28;20073;-67
2023/08/15 05:25:05;;;;;;;5.25;2.13;;;;;;;23.49;55.82;101353.06;5008803;28;20104;-67
2023/08/15 05:27:31;;;;;;;5.07;2.10;;;;;;;23.48;55.50;101354.06;5009364;28;20037;-67
2023/08/15 05:29:56;;;;;;;5.38;2.08;;;;;;;23.49;55.88;101358.41;5010073;28;20050;-68
2023/08/15 05:32:21;;;;;;;6.15;2.05;;;;;;;23.49;55.62;101367.19;5010036;28;20482;-67
2023/08/15 05:34:47;;;;;;;6.05;2.00;;;;;;;23.48;55.77;101364.69;5009932;28;20030;-65
2023/08/15 05:37:12;;;;;;;6.07;1.90;;;;;;;23.49;55.57;101358.41;5009552;28;20034;-67
2023/08/15 05:39:38;;;;;;;5.28;2.10;;;;;;;23.47;55.92;101353.22;5009682;28;20036;-68
2023/08/15 05:42:03;;;;;;;4.82;1.90;;;;;;;23.48;55.53;101359.38;5009314;28;21480;-68
2023/08/15 05:44:28;;;;;;;4.55;1.75;;;;;;;23.48;56.04;101356.72;5006892;28;20448;-66
2023/08/15 05:46:54;;;;;;;5.37;2.07;;;;;;;23.48;55.91;101352.25;5008194;28;20034;-67
2023/08/15 05:49:19;;;;;;;5.10;1.77;;;;;;;23.49;55.99;101358.41;5008418;28;20921;-67
2023/08/15 05:51:44;;;;;;;6.00;2.10;;;;;;;23.47;55.65;101358.53;5008343;28;20088;-65
2023/08/15 05:54:10;;;;;;;4.70;1.67;;;;;;;23.49;55.75;101366.38;5008545;28;20030;-66
2023/08/15 05:56:35;;;;;;;5.13;2.00;;;;;;;23.49;55.97;101379.69;5008080;28;20278;-66
2023/08/15 05:59:00;;;;;;;5.00;1.90;;;;;;;23.48;55.52;101376.19;5008024;28;20087;-64
2023/08/15 06:01:26;;;;;;;5.80;1.92;;;;;;;23.48;55.77;101378.00;5008508;28;20088;-67
2023/08/15 06:03:51;;;;;;;5.50;1.90;;;;;;;23.48;55.47;101378.00;5009404;28;20041;-67
2023/08/15 06:06:16;;;;;;;4.78;1.80;;;;;;;23.50;55.70;101381.38;5008583;28;20068;-66
2023/08/15 06:08:42;;;;;;;4.65;2.10;;;;;;;23.51;55.71;101383.03;5007685;28;20033;-64
2023/08/15 06:11:07;;;;;;;6.60;2.10;;;;;;;23.52;55.57;101388.19;5007993;28;20034;-65
2023/08/15 06:13:32;;;;;;;4.07;2.00;;;;;;;23.52;55.84;101387.38;5008042;28;20038;-67
2023/08/15 06:15:58;;;;;;;5.47;1.98;;;;;;;23.49;56.30;101396.47;5009315;28;20030;-65
2023/08/15 06:18:23;;;;;;;4.70;2.00;;;;;;;23.49;56.41;101404.44;5008740;28;20477;-65
2023/08/15 06:20:49;;;;;;;6.00;2.28;;;;;;;23.50;56.51;101410.63;5007195;28;20517;-66
2023/08/15 06:23:14;;;;;;;5.53;2.33;;;;;;;23.50;56.70;101402.66;5008723;28;20065;-67
2023/08/15 06:25:40;;;;;;;7.38;2.30;;;;;;;23.51;56.76;101409.63;5008370;28;20441;-66
2023/08/15 06:28:06;;;;;;;6.10;2.00;;;;;;;23.50;56.55;101410.63;5008725;28;20029;-68
2023/08/15 06:30:31;;;;;;;4.95;1.80;;;;;;;23.50;56.47;101414.09;5008614;28;20034;-66
2023/08/15 06:32:56;;;;;;;5.85;2.35;;;;;;;23.50;56.58;101416.78;5008885;28;20048;-67
2023/08/15 06:35:27;;;;;;;5.25;2.22;;;;;;;23.49;56.83;101415.09;5008987;28;20109;-68
2023/08/15 06:37:53;;;;;;;8.60;2.30;;;;;;;23.49;56.79;101407.09;5008586;28;20026;-66
2023/08/15 06:40:18;;;;;;;5.22;2.58;;;;;;;23.50;56.97;101415.94;5008678;28;20026;-68
2023/08/15 06:42:43;;;;;;;5.13;2.20;;;;;;;23.50;57.18;101415.94;5008038;28;20068;-67
2023/08/15 06:45:11;;;;;;;6.43;2.08;;;;;;;23.51;57.07;101409.63;5007456;28;20119;-68
2023/08/15 06:47:37;;;;;;;4.10;1.85;;;;;;;23.51;57.15;101409.63;5007239;28;20387;-67
2023/08/15 06:50:02;;;;;;;5.10;1.75;;;;;;;23.51;56.86;101409.63;5007162;28;20030;-68
2023/08/15 06:52:28;;;;;;;4.72;2.05;;;;;;;23.51;57.34;101421.13;5007348;28;20164;-66
2023/08/15 06:54:53;;;;;;;7.30;2.20;;;;;;;23.52;57.32;101421.94;5007180;28;20061;-65
2023/08/15 06:57:18;;;;;;;5.10;2.05;;;;;;;23.55;57.17;101421.66;5004678;28;20830;-68
2023/08/15 06:59:44;;;;;;;5.00;2.10;;;;;;;23.63;57.46;101416.44;5007224;28;20037;-68
2023/08/15 07:02:10;;;;;;;7.68;2.17;;;;;;;23.72;57.14;101412.06;5007934;28;20088;-68
2023/08/15 07:04:40;;;;;;;8.15;2.45;;;;;;;23.75;57.16;101411.78;5007757;28;20033;-69
2023/08/15 07:07:07;;;;;;;6.30;2.35;;;;;;;23.80;57.18;101420.13;5007265;28;20076;-67
2023/08/15 07:09:32;;;;;;;6.90;2.20;;;;;;;23.72;57.51;101428.84;5005164;28;20034;-66
2023/08/15 07:11:58;;;;;;;5.38;1.90;;;;;;;23.69;57.67;101425.66;5007232;28;20034;-69
2023/08/15 07:14:23;;;;;;;4.60;1.75;;;;;;;23.68;57.22;101423.97;5007017;28;20025;-67
2023/08/15 07:16:49;;;;;;;6.25;1.90;;;;;;;23.67;57.77;101422.28;5007111;28;20056;-70
2023/08/15 07:19:15;;;;;;;4.57;1.83;;;;;;;23.65;57.39;101424.25;5006296;28;20044;-67
2023/08/15 07:21:41;;;;;;;5.75;1.98;;;;;;;23.67;57.81;101427.59;5002042;28;20172;-67
2023/08/15 07:24:07;;;;;;;5.38;2.10;;;;;;;23.67;57.36;101433.78;5006284;28;20030;-68
2023/08/15 07:26:32;;;;;;;4.82;2.00;;;;;;;23.67;57.43;101439.13;5003617;28;20405;-67
2023/08/15 07:28:57;;;;;;;4.82;1.70;;;;;;;23.68;57.23;101438.09;5006303;28;20124;-66
2023/08/15 07:31:23;;;;;;;4.18;1.80;;;;;;;23.70;57.79;101445.94;5005182;28;20485;-64
2023/08/15 07:33:48;;;;;;;5.38;2.00;;;;;;;23.69;57.35;101445.13;5006586;28;20034;-66
2023/08/15 07:36:13;;;;;;;5.50;2.22;;;;;;;23.74;57.48;101452.66;5005231;28;20418;-66
2023/08/15 07:38:39;;;;;;;6.07;1.95;;;;;;;23.77;56.37;101452.38;5006546;28;20052;-67
2023/08/15 07:41:04;;;;;;;6.45;2.05;;;;;;;23.79;56.09;101455.72;5007208;28;20041;-66
2023/08/15 07:43:30;;;;;;;6.13;1.98;;;;;;;23.76;56.12;101453.34;5006904;28;20029;-67
2023/08/15 07:45:55;;;;;;;6.47;2.22;;;;;;;23.77;56.43;101463.00;5007431;28;20057;-67
2023/08/15 07:48:20;;;;;;;8.77;2.90;;;;;;;23.70;56.55;101452.13;5006952;28;20025;-66
2023/08/15 07:50:46;;;;;;;7.68;2.40;;;;;;;23.68;56.69;101450.59;5007064;28;20064;-66
2023/08/15 07:53:12;;;;;;;5.20;2.00;;;;;;;23.66;56.51;101458.72;5006852;28;20493;-66
2023/08/15 07:55:37;;;;;;;4.90;1.65;;;;;;;23.65;56.91;101458.84;5007026;28;20033;-67
2023/08/15 07:58:03;;;;;;;5.22;2.00;;;;;;;23.64;56.85;101460.69;5007336;28;20022;-66
2023/08/15 08:00:28;;;;;;;6.35;1.90;;;;;;;23.64;56.81;101465.16;5006927;28;20097;-67
2023/08/15 08:02:53;;;;;;;5.30;2.22;;;;;;;23.63;57.08;101461.66;5007227;28;20459;-67
2023/08/15 08:05:19;;;;;;;6.20;1.93;;;;;;;23.63;56.90;101460.84;5006420;28;20124;-67
2023/08/15 08:07:45;;;;;;;6.07;1.98;;;;;;;23.62;57.01;101462.63;5006765;28;20294;-65
2023/08/15 08:10:10;;;;;;;4.40;1.80;;;;;;;23.64;56.80;101467.81;5006589;28;20133;-67
2023/08/15 08:12:36;;;;;;;4.75;1.80;;;;;;;23.63;57.45;101466.16;5006032;28;20132;-66
2023/08/15 08:15:02;;;;;;;5.38;1.80;;;;;;;23.64;57.40;101459.81;5006674;28;20038;-67
2023/08/15 08:17:29;;;;;;;6.63;2.03;;;;;;;23.64;56.88;101457.16;5006676;28;20045;-66
2023/08/15 08:19:54;;;;;;;4.50;1.83;;;;;;;23.65;56.93;101461.53;5006908;28;20026;-66
2023/08/15 08:22:20;;;;;;;4.32;1.85;;;;;;;23.66;57.01;101466.69;5006372;28;20064;-69
2023/08/15 08:24:48;;;;;;;7.25;2.22;;;;;;;23.70;57.20;101469.88;5005571;28;20129;-68
2023/08/15 08:27:14;;;;;;;5.35;2.10;;;;;;;23.72;57.29;101473.25;5006393;28;20053;-68
2023/08/15 08:29:39;;;;;;;5.45;2.10;;;;;;;23.75;57.59;101465.00;5007510;28;20048;-68
2023/08/15 08:32:04;;;;;;;6.53;2.10;;;;;;;23.75;57.56;101475.63;5006708;28;20391;-68
2023/08/15 08:34:30;;;;;;;6.55;2.10;;;;;;;23.78;57.43;101475.31;5007318;28;20069;-68
2023/08/15 08:36:55;;;;;;;5.90;2.30;;;;;;;23.81;57.06;101469.69;5007586;28;20041;-68
2023/08/15 08:39:21;;;;;;;5.25;2.20;;;;;;;23.81;57.40;101467.03;5006778;28;20831;-67
2023/08/15 08:41:47;;;;;;;6.20;2.40;;;;;;;23.84;57.16;101468.59;5006734;28;20033;-67
2023/08/15 08:44:12;;;;;;;7.82;2.10;;;;;;;23.85;57.06;101467.63;5006346;28;20050;-69
2023/08/15 08:46:39;;;;;;;5.95;2.20;;;;;;;23.88;57.27;101475.31;5006600;28;20040;-68
2023/08/15 08:49:06;;;;;;;6.22;2.00;;;;;;;23.88;57.54;101470.84;5005440;28;20042;-67
2023/08/15 08:51:32;;;;;;;5.97;2.35;;;;;;;23.84;57.39;101472.09;5005393;28;20037;-66
2023/08/15 08:53:58;;;;;;;5.32;2.00;;;;;;;23.84;57.32;101472.09;5006283;28;20100;-67
2023/08/15 08:56:25;;;;;;;4.57;1.98;;;;;;;23.86;57.29;101475.47;5006582;28;20072;-68
2023/08/15 08:58:58;;;;;;;6.57;2.30;;;;;;;23.88;57.29;101486.81;5006820;28;20044;-67
2023/08/15 09:01:27;;;;;;;5.70;2.30;;;;;;;23.89;57.15;101483.16;5005789;28;20017;-66
2023/08/15 09:03:52;;;;;;;5.10;1.95;;;;;;;23.93;57.28;101483.69;5005700;28;20068;-68
2023/08/15 09:06:18;;;;;;;4.83;1.97;;;;;;;23.92;57.49;101484.69;5006157;28;20065;-68
2023/08/15 09:08:43;;;;;;;6.57;2.35;;;;;;;23.92;57.01;101478.53;5005091;28;20276;-67
2023/08/15 09:11:08;;;;;;;6.15;2.35;;;;;;;23.92;56.88;101484.69;5003800;28;20030;-68
2023/08/15 09:13:34;;;;;;;4.82;2.08;;;;;;;23.90;57.20;101479.50;5005409;28;20038;-67
2023/08/15 09:16:03;;;;;;;5.88;2.28;;;;;;;23.92;57.46;101482.00;5006342;28;20030;-67
2023/08/15 09:18:33;;;;;;;6.82;2.33;;;;;;;23.93;57.38;101486.38;5006126;28;20038;-68
2023/08/15 09:20:58;;;;;;;6.00;2.15;;;;;;;23.96;57.50;101483.41;5005819;28;20475;-69
2023/08/15 09:23:23;;;;;;;6.55;2.60;;;;;;;23.98;56.96;101494.75;5006360;28;20060;-69
2023/08/15 09:25:53;;;;;;;8.43;2.50;;;;;;;23.98;57.28;101491.25;5006268;28;20065;-68
2023/08/15 09:28:18;;;;;;;7.13;2.22;;;;;;;23.96;57.34;101491.38;5006083;28;20088;-68
2023/08/15 09:30:52;;;;;;;6.38;2.25;;;;;;;23.98;57.68;101500.06;5005135;28;20041;-68
2023/08/15 09:33:17;;;;;;;8.32;2.50;;;;;;;24.02;57.35;101508.59;5004670;28;20042;-68
2023/08/15 09:35:45;;;;;;;4.50;2.00;;;;;;;24.01;57.34;101502.44;5004981;28;20112;-68
2023/08/15 09:38:11;;;;;;;4.80;2.17;;;;;;;24.01;57.46;101502.44;5004813;28;20065;-67
2023/08/15 09:40:37;;;;;;;4.90;1.98;;;;;;;23.96;57.34;101498.53;5004813;28;20037;-69
2023/08/15 09:43:02;;;;;;;4.65;1.90;;;;;;;23.96;57.64;101493.19;5004936;28;20026;-67
2023/08/15 09:45:28;;;;;;;5.93;2.20;;;;;;;23.98;57.38;101500.06;5004769;28;20077;-66
2023/08/15 09:47:54;;;;;;;5.93;2.25;;;;;;;24.00;57.59;101500.75;5004679;28;20041;-68
2023/08/15 09:50:20;;;;;;;5.10;2.00;;;;;;;24.04;56.83;101509.28;5000425;28;20481;-65
2023/08/15 09:52:46;;;;;;;4.70;1.77;;;;;;;24.07;56.96;101504.50;5004135;28;20034;-65
2023/08/15 09:55:14;;;;;;;5.68;2.08;;;;;;;24.06;57.03;101508.13;5002588;28;20030;-67
2023/08/15 09:57:40;;;;;;;6.32;1.95;;;;;;;24.06;57.05;101512.63;5003960;28;20029;-68
2023/08/15 10:00:17;;;;;;;6.00;2.22;;;;;;;24.07;56.81;101511.66;4967523;28;20426;-67
2023/08/15 10:02:52;;;;;;;5.25;2.28;;;;;;;24.07;57.30;101522.31;5008391;28;20022;-68
2023/08/15 10:05:21;;;;;;;5.85;2.33;;;;;;;24.08;57.19;101522.16;5008170;28;20029;-67
2023/08/15 10:07:46;;;;;;;5.40;2.00;;;;;;;24.09;57.25;101528.31;5007782;28;20449;-66
2023/08/15 10:10:13;;;;;;;6.45;1.88;;;;;;;24.11;56.66;101533.50;5009275;28;20053;-67
2023/08/15 10:12:40;;;;;;;6.30;2.20;;;;;;;24.09;56.72;101534.47;5008305;28;20116;-68
2023/08/15 10:15:08;;;;;;;7.22;1.95;;;;;;;24.11;56.84;101536.16;5007992;28;20034;-64
2023/08/15 10:17:34;;;;;;;6.00;2.13;;;;;;;24.13;57.00;101537.66;5006493;28;20029;-68
2023/08/15 10:20:10;;;;;;;4.80;2.08;;;;;;;24.11;56.87;101531.66;5007107;28;20073;-66
2023/08/15 10:22:37;;;;;;;4.75;2.05;;;;;;;24.16;57.26;101536.53;4935939;28;20062;-67
2023/08/15 10:25:24;;;;;;;6.47;2.00;;;;;;;24.15;57.14;101533.06;1507996;28;10000963;-67
2023/08/15 10:27:54;;;;;;;8.00;2.20;;;;;;;24.18;56.66;101540.75;4157209;28;10000235;-68
2023/08/15 10:30:36;;;;;;;6.15;2.00;;;;;;;24.19;57.18;101539.75;4945641;28;20488;-68
2023/08/15 10:33:15;;;;;;;7.47;2.47;;;;;;;24.20;57.13;101544.09;4948482;28;20539;-68
2023/08/15 10:36:08;;;;;;;6.93;2.17;;;;;;;24.22;57.22;101547.44;4949327;28;20136;-67
2023/08/15 10:38:40;;;;;;;4.78;1.95;;;;;;;24.24;57.43;101548.16;4947248;29;20051;-66
2023/08/15 10:41:10;;;;;;;5.80;1.98;;;;;;;24.24;56.80;101545.50;4949117;28;20036;-66
2023/08/15 10:43:36;;;;;;;5.22;2.10;;;;;;;24.26;56.87;101550.66;4949783;29;20182;-65
2023/08/15 10:46:04;;;;;;;5.80;2.00;;;;;;;24.26;56.87;101545.34;4932890;28;20059;-67
2023/08/15 10:48:41;;;;;;;5.03;2.05;;;;;;;24.24;56.88;101545.50;4938553;28;20061;-66
2023/08/15 10:51:41;;;;;;;7.50;2.15;;;;;;;24.24;57.29;101550.81;4949319;28;20071;-68
2023/08/15 10:54:11;;;;;;;6.00;2.08;;;;;;;24.29;56.70;101545.00;4944519;29;20082;-68
2023/08/15 10:56:39;;;;;;;6.45;2.10;;;;;;;24.32;57.08;101542.06;4946962;29;20383;-68
2023/08/15 10:59:07;;;;;;;6.68;2.35;;;;;;;24.32;56.77;101539.38;4937782;28;20587;-66
2023/08/15 11:01:33;;;;;;;5.22;2.20;;;;;;;24.31;57.15;101543.06;4948362;28;20039;-67
2023/08/15 11:03:59;;;;;;;4.97;2.15;;;;;;;24.31;56.79;101540.41;4950469;29;20031;-66
2023/08/15 11:06:25;;;;;;;6.32;2.50;;;;;;;24.33;57.25;101543.75;4947074;29;20118;-68
2023/08/15 11:08:50;;;;;;;6.45;2.33;;;;;;;24.32;57.12;101539.38;4948451;28;20045;-68
2023/08/15 11:11:16;;;;;;;6.20;2.33;;;;;;;24.33;56.88;101535.75;4945725;28;20038;-66
2023/08/15 11:13:46;;;;;;;5.85;2.03;;;;;;;24.33;56.54;101541.06;4948432;28;20066;-67
2023/08/15 11:16:14;;;;;;;6.60;2.10;;;;;;;24.35;56.53;101535.59;4947799;29;20099;-66
2023/08/15 11:18:40;;;;;;;5.30;2.10;;;;;;;24.38;56.74;101538.78;4935275;28;20055;-66
2023/08/15 11:21:09;;;;;;;6.95;2.10;;;;;;;24.39;56.77;101534.34;4937015;28;20082;-66